Terminal Aerodrome Forecast
Issued by NWS Wakefield, VA

Home | Current Version | Previous Version | Text Only | Print | Product List | Glossary On
Versions: 1 2 3 4 5 6 7 8 9 10 11 12 13 14 15 16 17 18 19 20 21 22 23 24 25 26 27 28 29 30 31
000
FTUS41 KAKQ 191157 CCA
TAFORF
TAF COR
KORF 191157Z 1912/2012 20007KT P6SM SCT009 BKN200
      TEMPO 1912/1914 BKN010
     FM191500 20008KT P6SM VCSH BKN060
     FM191900 18007KT 6SM SHRA OVC040
     FM200100 21006KT P6SM BKN100=

USA.gov is the U.S. government's official web portal to all federal, state and local government web resources and services.